Weather History for KCVN - January, 2013

Change the Weather History Date:

Sunday, January 6, 2013

  Actual Average Record
Temperature  
Mean Temperature 32 °F -  
Max Temperature 48 °F 50 °F 74 °F (1927)
Min Temperature 15 °F 23 °F -2 °F (1913)
Degree Days  
Heating Degree Days 34    
Moisture  
Dew Point 16 °F    
Average Humidity 58    
Maximum Humidity 86    
Minimum Humidity 30    
Precipitation  
Precipitation 0.00 in - - ()
Sea Level Pressure  
Sea Level Pressure 30.33 in    
Wind  
Wind Speed 10 mph (SW)    
Max Wind Speed 15 mph    
Max Gust Speed 22 mph    
Visibility 10 miles    
Events      
Averages and records for this station are not official NWS values.
T = Trace of Precipitation, MM = Missing Value Source: NWS Daily Summary

Daily Weather History Graph

Daily Weather History Graph

Search for Another Location

Airport or City:

Trip Planner

Search our weather history database for the weather conditions in past years. The results will help you decide how hot, cold, wet, or windy it might be!

Date:

Astronomy

Jan. 06, 2013 Rise Set
Actual Time 6:59 AM MST 4:57 PM MST
Civil Twilight 6:31 AM MST 5:25 PM MST
Nautical Twilight 6:00 AM MST 5:56 PM MST
Astronomical Twilight 5:30 AM MST 6:26 PM MST
Moon 1:21 AM MST (1/6) 12:21 PM MST (1/6)
Length of Visible Light 10h 53m
Length of Day
9h 58m
Waning Crescent, 32% of the Moon is Illuminated
Jan 6
Waning Crescent
Jan 11
New
Jan 18
First Quarter
Jan 26
Full
Feb 3
Last Quarter

Hourly Weather History & Observations

Time (MST) Temp. Windchill Dew Point Humidity Pressure Visibility Wind Dir Wind Speed Gust Speed Precip Events Conditions
12:35 AM 19.4 °F 7.2 °F 12.2 °F 74% 30.37 in 10.0 mi North 11.5 mph - N/A   Clear
12:55 AM 21.2 °F - 12.2 °F 68% 30.37 in 10.0 mi North - - N/A   Clear
1:15 AM 21.2 °F 9.5 °F 14.0 °F 74% 30.37 in 10.0 mi North 11.5 mph - N/A   Clear
1:35 AM 19.4 °F 7.2 °F 14.0 °F 80% 30.37 in 10.0 mi North 11.5 mph - N/A   Clear
1:55 AM 21.2 °F 10.1 °F 15.8 °F 80% 30.37 in 10.0 mi North 10.4 mph - N/A   Clear
2:15 AM 21.2 °F 10.1 °F 14.0 °F 74% 30.37 in 10.0 mi North 10.4 mph - N/A   Clear
2:35 AM 21.2 °F 9.5 °F 14.0 °F 74% 30.37 in 10.0 mi North 11.5 mph - N/A   Clear
2:55 AM 19.4 °F 9.5 °F 14.0 °F 80% 30.37 in 10.0 mi North 8.1 mph - N/A   Clear
3:15 AM 21.2 °F 11.7 °F 15.8 °F 80% 30.38 in 10.0 mi NNW 8.1 mph - N/A   Clear
3:35 AM 17.6 °F 6.4 °F 10.4 °F 73% 30.37 in 10.0 mi NNW 9.2 mph - N/A   Clear
3:55 AM 19.4 °F 9.5 °F 12.2 °F 74% 30.37 in 10.0 mi NNW 8.1 mph - N/A   Clear
4:35 AM 17.6 °F 8.2 °F 10.4 °F 73% 30.37 in 10.0 mi NNW 6.9 mph - N/A   Clear
4:55 AM 19.4 °F 11.5 °F 14.0 °F 80% 30.37 in 10.0 mi NW 5.8 mph - N/A   Clear
5:15 AM 19.4 °F 14.3 °F 15.8 °F 86% 30.38 in 10.0 mi NNW 3.5 mph - N/A   Clear
5:35 AM 19.4 °F 10.4 °F 10.4 °F 68% 30.38 in 10.0 mi NW 6.9 mph - N/A   Clear
5:55 AM 17.6 °F 8.2 °F 10.4 °F 73% 30.39 in 10.0 mi NW 6.9 mph - N/A   Clear
6:15 AM 17.6 °F 8.2 °F 12.2 °F 79% 30.38 in 10.0 mi NW 6.9 mph - N/A   Clear
6:35 AM 17.6 °F 9.3 °F 10.4 °F 73% 30.39 in 10.0 mi NW 5.8 mph - N/A   Clear
6:55 AM 15.8 °F 7.2 °F 8.6 °F 73% 30.39 in 10.0 mi NW 5.8 mph - N/A   Clear
7:15 AM 15.8 °F 7.2 °F 10.4 °F 79% 30.40 in 10.0 mi NW 5.8 mph - N/A   Clear
7:35 AM 17.6 °F 10.7 °F 12.2 °F 79% 30.40 in 10.0 mi NW 4.6 mph - N/A   Clear
7:55 AM 21.2 °F 14.9 °F 15.8 °F 80% 30.40 in 10.0 mi WNW 4.6 mph - N/A   Clear
8:15 AM 24.8 °F 20.5 °F 17.6 °F 74% 30.41 in 10.0 mi WNW 3.5 mph - N/A   Clear
8:35 AM 28.4 °F 23.3 °F 19.4 °F 69% 30.42 in 10.0 mi West 4.6 mph - N/A   Clear
8:55 AM 33.8 °F 28.6 °F 21.2 °F 60% 30.42 in 10.0 mi SW 5.8 mph - N/A   Clear
9:15 AM 35.6 °F 30.7 °F 21.2 °F 56% 30.43 in 10.0 mi SSW 5.8 mph - N/A   Clear
9:35 AM 37.4 °F 30.3 °F 21.2 °F 52% 30.43 in 10.0 mi South 10.4 mph - N/A   Clear
9:55 AM 37.4 °F 30.8 °F 21.2 °F 52% 30.42 in 10.0 mi SSW 9.2 mph - N/A   Clear
10:15 AM 39.2 °F 32.5 °F 21.2 °F 49% 30.42 in 10.0 mi SSW 10.4 mph - N/A   Clear
10:35 AM 39.2 °F 32.5 °F 21.2 °F 49% 30.41 in 10.0 mi South 10.4 mph - N/A   Clear
10:55 AM 41.0 °F 33.9 °F 21.2 °F 45% 30.40 in 10.0 mi SSW 12.7 mph - N/A   Clear
11:15 AM 42.8 °F 36.6 °F 21.2 °F 42% 30.39 in 10.0 mi SSW 11.5 mph 16.1 mph N/A   Clear
11:35 AM 42.8 °F 35.8 °F 21.2 °F 42% 30.37 in 10.0 mi South 13.8 mph - N/A   Clear
11:55 AM 44.6 °F 38.4 °F 21.2 °F 39% 30.36 in 10.0 mi South 12.7 mph - N/A   Clear
12:15 PM 44.6 °F 38.1 °F 21.2 °F 39% 30.34 in 10.0 mi SSW 13.8 mph - N/A   Clear
12:35 PM 44.6 °F 38.8 °F 21.2 °F 39% 30.33 in 10.0 mi SSW 11.5 mph - N/A   Clear
12:55 PM 44.6 °F 37.8 °F 21.2 °F 39% 30.32 in 10.0 mi SSW 15.0 mph 18.4 mph N/A   Clear
1:15 PM 46.4 °F 40.4 °F 21.2 °F 37% 30.31 in 10.0 mi South 13.8 mph 21.9 mph N/A   Clear
1:35 PM 46.4 °F 41.5 °F 21.2 °F 37% 30.30 in 10.0 mi SW 10.4 mph - N/A   Clear
1:55 PM 48.2 °F - 21.2 °F 34% 30.29 in 10.0 mi South 13.8 mph - N/A   Clear
2:15 PM 48.2 °F - 19.4 °F 32% 30.28 in 10.0 mi SSW 12.7 mph 21.9 mph N/A   Clear
2:35 PM 48.2 °F - 19.4 °F 32% 30.28 in 10.0 mi SSW 15.0 mph - N/A   Clear
2:55 PM 48.2 °F - 19.4 °F 32% 30.27 in 10.0 mi South 15.0 mph 18.4 mph N/A   Clear
3:15 PM 48.2 °F - 17.6 °F 30% 30.27 in 10.0 mi South 15.0 mph - N/A   Clear
3:35 PM 48.2 °F - 19.4 °F 32% 30.26 in 10.0 mi South 15.0 mph - N/A   Clear
3:55 PM 48.2 °F - 17.6 °F 30% 30.26 in 10.0 mi South 13.8 mph - N/A   Clear
4:15 PM 46.4 °F 40.4 °F 17.6 °F 32% 30.26 in 10.0 mi South 13.8 mph - N/A   Clear
4:35 PM 44.6 °F 38.4 °F 17.6 °F 34% 30.26 in 10.0 mi South 12.7 mph - N/A   Clear
4:55 PM 41.0 °F 34.3 °F 15.8 °F 36% 30.26 in 10.0 mi South 11.5 mph - N/A   Clear
5:15 PM 37.4 °F 30.3 °F 15.8 °F 41% 30.26 in 10.0 mi South 10.4 mph - N/A   Clear
5:35 PM 35.6 °F 28.6 °F 15.8 °F 44% 30.26 in 10.0 mi South 9.2 mph - N/A   Clear
5:55 PM 32.0 °F 24.2 °F 14.0 °F 48% 30.26 in 10.0 mi South 9.2 mph - N/A   Clear
6:15 PM 32.0 °F 23.6 °F 15.8 °F 51% 30.26 in 10.0 mi South 10.4 mph - N/A   Clear
6:35 PM 32.0 °F 23.6 °F 15.8 °F 51% 30.26 in 10.0 mi South 10.4 mph - N/A   Clear
6:55 PM 30.2 °F 21.3 °F 15.8 °F 55% 30.26 in 10.0 mi South 10.4 mph - N/A   Clear
7:15 PM 30.2 °F 20.8 °F 15.8 °F 55% 30.26 in 10.0 mi South 11.5 mph - N/A   Clear
7:35 PM 30.2 °F 20.8 °F 15.8 °F 55% 30.26 in 10.0 mi South 11.5 mph - N/A   Clear
7:55 PM 30.2 °F 20.8 °F 15.8 °F 55% 30.26 in 10.0 mi South 11.5 mph - N/A   Clear
8:35 PM 30.2 °F 20.8 °F 17.6 °F 60% 30.25 in 10.0 mi South 11.5 mph - N/A   Clear
8:55 PM 28.4 °F 19.1 °F 17.6 °F 64% 30.24 in 10.0 mi South 10.4 mph - N/A   Clear
9:15 PM 28.4 °F 19.1 °F 15.8 °F 59% 30.24 in 10.0 mi South 10.4 mph - N/A   Clear
9:35 PM 26.6 °F 18.2 °F 15.8 °F 64% 30.24 in 10.0 mi SSW 8.1 mph - N/A   Clear
9:55 PM 26.6 °F 16.8 °F 15.8 °F 64% 30.24 in 10.0 mi SW 10.4 mph - N/A   Clear
10:35 PM 24.8 °F 16.1 °F 15.8 °F 69% 30.22 in 10.0 mi SW 8.1 mph - N/A   Clear
10:55 PM 23.0 °F 14.7 °F 15.8 °F 74% 30.22 in 10.0 mi SW 6.9 mph - N/A   Clear
11:15 PM 21.2 °F 11.7 °F 12.2 °F 68% 30.21 in 10.0 mi SW 8.1 mph - N/A   Clear
11:35 PM 21.2 °F 11.7 °F 14.0 °F 74% 30.21 in 10.0 mi SW 8.1 mph - N/A   Clear
11:55 PM 23.0 °F 12.4 °F 15.8 °F 74% 30.21 in 10.0 mi SW 10.4 mph - N/A   Clear